createdAt,value
2022-12-24T00:00:35.314Z,56.52
2022-12-24T00:03:02.262Z,56.61
2022-12-24T00:05:29.245Z,56.67
2022-12-24T00:07:55.917Z,56.94
2022-12-24T00:10:22.705Z,56.60
2022-12-24T00:12:49.379Z,56.48
2022-12-24T00:15:16.139Z,56.71
2022-12-24T00:17:42.838Z,56.41
2022-12-24T00:20:10.184Z,56.79
2022-12-24T00:22:36.930Z,56.79
2022-12-24T00:25:03.952Z,56.47
2022-12-24T00:27:30.614Z,56.45
2022-12-24T00:29:57.400Z,56.92
2022-12-24T00:32:24.142Z,56.36
2022-12-24T00:34:51.656Z,56.39
2022-12-24T00:37:18.362Z,56.42
2022-12-24T00:39:45.157Z,56.41
2022-12-24T00:42:12.056Z,56.47
2022-12-24T00:44:38.901Z,56.52
2022-12-24T00:47:11.781Z,56.21
2022-12-24T00:49:38.978Z,56.69
2022-12-24T00:52:05.812Z,56.46
2022-12-24T00:54:32.521Z,56.38
2022-12-24T00:56:59.221Z,56.48
2022-12-24T00:59:26.173Z,56.43
2022-12-24T01:01:52.884Z,56.25
2022-12-24T01:04:38.778Z,56.39
2022-12-24T01:07:05.618Z,56.30
2022-12-24T01:09:32.298Z,56.18
2022-12-24T01:11:59.086Z,56.22
2022-12-24T01:14:25.755Z,56.13
2022-12-24T01:16:52.568Z,55.84
2022-12-24T01:19:19.307Z,55.86
2022-12-24T01:21:46.098Z,56.34
2022-12-24T01:24:16.608Z,56.23
2022-12-24T01:26:43.528Z,55.79
2022-12-24T01:29:10.222Z,55.74
2022-12-24T01:31:37.181Z,56.04
2022-12-24T01:34:03.949Z,55.89
2022-12-24T01:36:30.960Z,55.74
2022-12-24T01:38:57.694Z,56.03
2022-12-24T01:41:43.637Z,56.11
2022-12-24T01:44:36.674Z,55.88
2022-12-24T01:47:03.894Z,55.67
2022-12-24T01:49:30.937Z,55.92
2022-12-24T01:52:06.337Z,55.71
2022-12-24T01:54:36.780Z,55.59
2022-12-24T01:57:14.013Z,55.57
2022-12-24T01:59:43.959Z,55.62
2022-12-24T02:02:11.083Z,55.75
2022-12-24T02:04:42.865Z,55.85
2022-12-24T02:07:09.611Z,55.89
2022-12-24T02:09:36.727Z,55.56
2022-12-24T02:12:05.323Z,55.59
2022-12-24T02:14:32.430Z,55.47
2022-12-24T02:16:59.163Z,55.89
2022-12-24T02:19:35.120Z,55.60
2022-12-24T02:22:17.682Z,55.70
2022-12-24T02:25:05.237Z,55.87
2022-12-24T02:27:32.009Z,55.46
2022-12-24T02:30:09.195Z,55.88
2022-12-24T02:33:03.907Z,55.44
2022-12-24T02:35:36.515Z,55.40
2022-12-24T02:38:06.250Z,55.83
2022-12-24T02:40:45.587Z,55.50
2022-12-24T02:43:16.001Z,55.77
2022-12-24T02:45:46.227Z,55.56
2022-12-24T02:48:15.720Z,55.86
2022-12-24T02:50:57.763Z,55.80
2022-12-24T02:53:24.632Z,55.34
2022-12-24T02:56:31.100Z,55.59
2022-12-24T02:59:08.665Z,55.78
2022-12-24T03:02:19.615Z,55.87
2022-12-24T03:04:56.413Z,55.41
2022-12-24T03:07:30.209Z,55.88
2022-12-24T03:10:18.205Z,55.48
2022-12-24T03:12:49.170Z,55.22
2022-12-24T03:15:17.837Z,55.57
2022-12-24T03:17:46.865Z,55.65
2022-12-24T03:20:16.578Z,55.62
2022-12-24T03:22:43.279Z,55.36
2022-12-24T03:25:10.116Z,55.54
2022-12-24T03:27:37.860Z,55.31
2022-12-24T03:30:09.351Z,55.38
2022-12-24T03:32:36.172Z,55.17
2022-12-24T03:35:03.189Z,55.66
2022-12-24T03:37:29.961Z,55.37
2022-12-24T03:39:56.733Z,55.30
2022-12-24T03:42:23.512Z,55.38
2022-12-24T03:44:50.253Z,55.24
2022-12-24T03:47:17.218Z,55.36
2022-12-24T03:49:43.864Z,55.26
2022-12-24T03:52:10.674Z,55.52
2022-12-24T03:54:37.337Z,55.73
2022-12-24T03:57:04.152Z,55.24
2022-12-24T03:59:30.820Z,55.48
2022-12-24T04:01:57.769Z,55.36
2022-12-24T04:04:24.616Z,55.59
2022-12-24T04:06:51.320Z,55.31
2022-12-24T04:09:18.076Z,55.23
2022-12-24T04:11:44.832Z,55.40
2022-12-24T04:14:11.509Z,55.34
2022-12-24T04:16:38.287Z,55.65
2022-12-24T04:19:04.984Z,55.59
2022-12-24T04:21:31.749Z,55.18
2022-12-24T04:23:58.469Z,55.42
2022-12-24T04:26:25.304Z,55.47
2022-12-24T04:28:51.995Z,55.42
2022-12-24T04:31:18.963Z,55.38
2022-12-24T04:33:46.079Z,55.47
2022-12-24T04:36:15.059Z,55.54
2022-12-24T04:38:41.881Z,55.47
2022-12-24T04:41:23.328Z,55.13
2022-12-24T04:43:52.817Z,55.13
2022-12-24T04:46:21.628Z,54.89
2022-12-24T04:48:50.560Z,55.06
2022-12-24T04:51:17.580Z,55.39
2022-12-24T04:53:44.876Z,55.29
2022-12-24T04:56:18.937Z,55.28
2022-12-24T04:58:45.808Z,55.32
2022-12-24T05:01:14.744Z,55.13
2022-12-24T05:03:41.643Z,54.94
2022-12-24T05:06:10.975Z,55.35
2022-12-24T05:08:38.546Z,54.95
2022-12-24T05:11:06.123Z,55.20
2022-12-24T05:13:40.777Z,55.30
2022-12-24T05:16:11.893Z,55.23
2022-12-24T05:18:38.657Z,54.85
2022-12-24T05:21:14.024Z,54.97
2022-12-24T05:23:59.457Z,54.77
2022-12-24T05:26:34.385Z,54.72
2022-12-24T05:29:02.215Z,54.98
2022-12-24T05:31:30.485Z,54.71
2022-12-24T05:33:57.377Z,55.07
2022-12-24T05:36:24.262Z,54.68
2022-12-24T05:38:51.545Z,54.71
2022-12-24T05:41:18.602Z,55.11
2022-12-24T05:43:45.501Z,55.21
2022-12-24T05:46:14.390Z,54.70
2022-12-24T05:48:47.466Z,55.09
2022-12-24T05:51:18.796Z,54.80
2022-12-24T05:53:46.352Z,54.94
2022-12-24T05:56:15.259Z,54.78
2022-12-24T05:58:42.904Z,54.67
2022-12-24T06:01:10.714Z,54.99
2022-12-24T06:03:37.964Z,54.73
2022-12-24T06:06:04.961Z,54.83
2022-12-24T06:08:32.029Z,55.00
2022-12-24T06:11:00.232Z,54.96
2022-12-24T06:13:27.520Z,54.76
2022-12-24T06:15:58.747Z,54.99
2022-12-24T06:18:25.846Z,54.98
2022-12-24T06:20:56.648Z,54.74
2022-12-24T06:23:24.138Z,54.76
2022-12-24T06:25:51.338Z,54.57
2022-12-24T06:28:18.815Z,54.48
2022-12-24T06:30:50.267Z,54.87
2022-12-24T06:33:17.740Z,54.59
2022-12-24T06:35:45.903Z,54.90
2022-12-24T06:38:13.419Z,54.54
2022-12-24T06:40:41.347Z,54.90
2022-12-24T06:43:08.353Z,54.05
2022-12-24T06:45:35.211Z,53.87
2022-12-24T06:48:02.093Z,53.94
2022-12-24T06:50:28.912Z,54.55
2022-12-24T06:52:55.696Z,54.28
2022-12-24T06:55:22.371Z,54.48
2022-12-24T06:57:49.143Z,55.05
2022-12-24T07:00:16.185Z,54.97
2022-12-24T07:02:44.413Z,55.32
2022-12-24T07:05:12.720Z,55.18
2022-12-24T07:07:42.539Z,55.44
2022-12-24T07:10:12.576Z,55.52
2022-12-24T07:12:39.333Z,55.26
2022-12-24T07:15:06.920Z,55.19
2022-12-24T07:17:34.060Z,55.63
2022-12-24T07:20:00.840Z,55.68
2022-12-24T07:22:27.589Z,55.44
2022-12-24T07:24:54.409Z,55.91
2022-12-24T07:27:21.846Z,56.11
2022-12-24T07:29:48.551Z,55.70
2022-12-24T07:32:15.490Z,55.88
2022-12-24T07:34:42.539Z,56.21
2022-12-24T07:37:09.279Z,55.91
2022-12-24T07:39:35.946Z,56.10
2022-12-24T07:42:02.741Z,56.44
2022-12-24T07:44:29.493Z,56.56
2022-12-24T07:46:56.334Z,56.08
2022-12-24T07:49:23.037Z,56.39
2022-12-24T07:51:49.795Z,56.35
2022-12-24T07:54:16.586Z,56.13
2022-12-24T07:56:43.490Z,56.29
2022-12-24T07:59:13.052Z,55.93
2022-12-24T08:01:40.142Z,55.85
2022-12-24T08:04:07.531Z,55.67
2022-12-24T08:06:34.853Z,55.72
2022-12-24T08:09:01.702Z,56.16
2022-12-24T08:11:28.588Z,55.70
2022-12-24T08:13:55.331Z,55.92
2022-12-24T08:16:22.318Z,55.90
2022-12-24T08:18:49.114Z,56.05
2022-12-24T08:21:16.020Z,55.99
2022-12-24T08:23:42.715Z,56.11
2022-12-24T08:26:15.370Z,55.99
2022-12-24T08:28:48.900Z,55.86
2022-12-24T08:31:17.034Z,55.84
2022-12-24T08:33:48.494Z,55.89
2022-12-24T08:36:20.609Z,56.29
2022-12-24T08:38:48.178Z,56.63
2022-12-24T08:41:14.914Z,56.39
2022-12-24T08:43:42.566Z,56.35
2022-12-24T08:46:09.900Z,56.63
2022-12-24T08:48:37.026Z,56.43
2022-12-24T08:51:10.859Z,56.84
2022-12-24T08:53:38.109Z,56.72
2022-12-24T08:56:06.977Z,56.80
2022-12-24T08:58:34.207Z,56.25
2022-12-24T09:01:01.587Z,56.58
2022-12-24T09:03:28.709Z,56.94
2022-12-24T09:05:55.642Z,56.44
2022-12-24T09:08:22.457Z,56.42
2022-12-24T09:10:49.132Z,56.51
2022-12-24T09:13:18.076Z,56.49
2022-12-24T09:15:53.663Z,56.89
2022-12-24T09:18:20.571Z,56.49
2022-12-24T09:20:50.188Z,56.91
2022-12-24T09:23:19.152Z,56.55
2022-12-24T09:25:46.770Z,56.96
2022-12-24T09:28:13.860Z,56.85
2022-12-24T09:30:41.008Z,56.93
2022-12-24T09:33:12.249Z,56.91
2022-12-24T09:35:48.165Z,56.45
2022-12-24T09:38:15.897Z,56.77
2022-12-24T09:40:42.651Z,56.63
2022-12-24T09:43:17.783Z,56.82
2022-12-24T09:45:56.809Z,56.41
2022-12-24T09:48:29.373Z,56.50
2022-12-24T09:51:08.971Z,56.77
2022-12-24T09:53:45.142Z,56.33
2022-12-24T09:56:16.614Z,56.24
2022-12-24T09:58:49.175Z,56.47
2022-12-24T10:01:17.315Z,56.20
2022-12-24T10:03:44.226Z,56.35
2022-12-24T10:06:15.887Z,56.14
2022-12-24T10:09:04.504Z,56.31
2022-12-24T10:11:47.864Z,56.39
2022-12-24T10:14:29.818Z,56.26
2022-12-24T10:17:35.278Z,56.47
2022-12-24T10:20:35.382Z,56.30
2022-12-24T10:23:20.808Z,56.02
2022-12-24T10:26:11.544Z,56.30
2022-12-24T10:28:43.897Z,56.00
2022-12-24T10:31:10.910Z,56.05
2022-12-24T10:33:42.143Z,55.92
2022-12-24T10:36:18.474Z,56.06
2022-12-24T10:38:46.186Z,56.02
2022-12-24T10:41:13.634Z,56.14
2022-12-24T10:43:42.416Z,55.65
2022-12-24T10:46:15.169Z,55.89
2022-12-24T10:48:50.594Z,55.64
2022-12-24T10:51:29.990Z,56.12
2022-12-24T10:54:02.089Z,55.75
2022-12-24T10:56:29.021Z,55.61
2022-12-24T10:58:55.753Z,55.72
2022-12-24T11:01:43.709Z,55.79
2022-12-24T11:04:19.284Z,55.48
2022-12-24T11:06:53.432Z,55.85
2022-12-24T11:09:35.351Z,55.13
2022-12-24T11:12:08.934Z,55.24
2022-12-24T11:14:38.081Z,55.14
2022-12-24T11:17:04.968Z,55.35
2022-12-24T11:19:33.926Z,55.52
2022-12-24T11:22:07.468Z,55.56
2022-12-24T11:24:37.486Z,55.25
2022-12-24T11:27:54.729Z,55.20
2022-12-24T11:30:23.119Z,55.17
2022-12-24T11:32:52.257Z,55.50
2022-12-24T11:35:21.919Z,55.28
2022-12-24T11:38:12.325Z,55.17
2022-12-24T11:40:42.052Z,55.17
2022-12-24T11:43:22.019Z,55.48
2022-12-24T11:45:56.683Z,55.33
2022-12-24T11:48:28.296Z,55.23
2022-12-24T11:51:03.641Z,55.24
2022-12-24T11:53:47.036Z,55.12
2022-12-24T11:56:31.341Z,55.67
2022-12-24T11:59:03.758Z,54.99
2022-12-24T12:01:32.268Z,55.58
2022-12-24T12:04:04.796Z,55.12
2022-12-24T12:06:33.517Z,54.93
2022-12-24T12:09:03.783Z,55.28
2022-12-24T12:11:31.063Z,55.08
2022-12-24T12:13:59.784Z,55.07
2022-12-24T12:16:55.673Z,54.59
2022-12-24T12:19:23.875Z,54.71
2022-12-24T12:21:51.622Z,54.32
2022-12-24T12:24:42.826Z,54.82
2022-12-24T12:27:21.009Z,54.29
2022-12-24T12:29:54.465Z,54.72
2022-12-24T12:32:42.794Z,54.81
2022-12-24T12:35:24.409Z,54.51
2022-12-24T12:38:02.484Z,54.78
2022-12-24T12:40:55.576Z,54.82
2022-12-24T12:43:32.562Z,54.48
2022-12-24T12:46:04.242Z,54.61
2022-12-24T12:49:09.949Z,55.25
2022-12-24T12:51:39.656Z,54.96
2022-12-24T12:54:25.140Z,54.92
2022-12-24T12:56:55.185Z,55.14
2022-12-24T12:59:46.436Z,55.35
2022-12-24T13:02:19.308Z,55.06
2022-12-24T13:05:00.277Z,55.36
2022-12-24T13:07:48.923Z,54.85
2022-12-24T13:10:43.316Z,54.87
2022-12-24T13:13:34.217Z,55.13
2022-12-24T13:16:21.351Z,54.88
2022-12-24T13:18:54.196Z,54.87
2022-12-24T13:21:24.089Z,54.82
2022-12-24T13:23:51.221Z,54.57
2022-12-24T13:26:18.700Z,54.56
2022-12-24T13:28:45.480Z,54.78
2022-12-24T13:31:12.194Z,54.51
2022-12-24T13:33:39.041Z,54.37
2022-12-24T13:36:19.257Z,54.70
2022-12-24T13:38:54.929Z,54.46
2022-12-24T13:41:39.560Z,54.58
2022-12-24T13:44:07.735Z,54.41
2022-12-24T13:46:59.743Z,54.77
2022-12-24T13:49:36.713Z,54.71
2022-12-24T13:52:11.457Z,54.89
2022-12-24T13:54:41.984Z,54.48
2022-12-24T13:57:29.971Z,54.46
2022-12-24T14:00:04.898Z,54.58
2022-12-24T14:02:59.601Z,54.81
2022-12-24T14:05:50.816Z,54.53
2022-12-24T14:08:39.571Z,54.89
2022-12-24T14:11:13.812Z,55.21
2022-12-24T14:13:40.606Z,55.14
2022-12-24T14:16:29.008Z,55.35
2022-12-24T14:19:33.688Z,55.26
2022-12-24T14:22:22.179Z,55.55
2022-12-24T14:24:57.204Z,55.74
2022-12-24T14:27:42.496Z,55.96
2022-12-24T14:30:09.520Z,56.03
2022-12-24T14:32:40.366Z,56.55
2022-12-24T14:35:18.680Z,56.43
2022-12-24T14:38:06.027Z,56.71
2022-12-24T14:40:37.626Z,56.69
2022-12-24T14:43:29.216Z,56.74
2022-12-24T14:46:37.782Z,56.92
2022-12-24T14:49:06.334Z,56.61
2022-12-24T14:52:00.713Z,56.74
2022-12-24T14:54:35.511Z,56.58
2022-12-24T14:57:11.096Z,56.55
2022-12-24T14:59:46.359Z,56.51
2022-12-24T15:02:31.775Z,57.01
2022-12-24T15:05:04.745Z,56.51
2022-12-24T15:07:32.969Z,56.86
2022-12-24T15:10:00.071Z,56.83
2022-12-24T15:12:26.966Z,57.15
2022-12-24T15:14:53.771Z,56.87
2022-12-24T15:17:20.672Z,56.85
2022-12-24T15:19:50.405Z,57.34
2022-12-24T15:22:27.937Z,57.32
2022-12-24T15:24:54.919Z,57.36
2022-12-24T15:27:24.433Z,56.95
2022-12-24T15:29:57.089Z,57.47
2022-12-24T15:32:24.476Z,57.03
2022-12-24T15:34:55.089Z,57.25
2022-12-24T15:37:48.284Z,57.27
2022-12-24T15:40:21.245Z,57.28
2022-12-24T15:42:48.123Z,57.34
2022-12-24T15:45:27.805Z,57.42
2022-12-24T15:47:59.345Z,57.58
2022-12-24T15:50:29.731Z,57.33
2022-12-24T15:53:21.140Z,57.59
2022-12-24T15:56:19.492Z,58.01
2022-12-24T15:58:46.372Z,57.46
2022-12-24T16:01:13.503Z,57.33
2022-12-24T16:03:41.999Z,57.54
2022-12-24T16:06:11.905Z,57.52
2022-12-24T16:08:40.118Z,57.78
2022-12-24T16:11:06.859Z,58.07
2022-12-24T16:13:36.283Z,57.80
2022-12-24T16:16:14.647Z,58.14
2022-12-24T16:18:56.728Z,58.16
2022-12-24T16:21:32.683Z,57.84
2022-12-24T16:24:06.393Z,57.86
2022-12-24T16:26:34.839Z,57.87
2022-12-24T16:29:01.878Z,57.98
2022-12-24T16:31:32.394Z,58.30
2022-12-24T16:33:59.489Z,58.34
2022-12-24T16:36:26.800Z,57.74
2022-12-24T16:39:12.416Z,57.73
2022-12-24T16:41:57.623Z,57.91
2022-12-24T16:44:24.392Z,58.13
2022-12-24T16:46:53.261Z,58.03
2022-12-24T16:49:21.611Z,58.13
2022-12-24T16:51:48.506Z,58.40
2022-12-24T16:54:15.512Z,58.61
2022-12-24T16:56:43.076Z,58.62
2022-12-24T16:59:21.439Z,58.23
2022-12-24T17:01:48.828Z,58.02
2022-12-24T17:04:16.499Z,58.43
2022-12-24T17:06:43.607Z,58.40
2022-12-24T17:09:11.434Z,58.09
2022-12-24T17:11:38.326Z,58.08
2022-12-24T17:14:08.436Z,58.60
2022-12-24T17:16:44.792Z,58.31
2022-12-24T17:19:11.607Z,58.66
2022-12-24T17:21:38.359Z,58.52
2022-12-24T17:24:05.456Z,58.73
2022-12-24T17:26:33.240Z,58.30
2022-12-24T17:29:03.574Z,58.33
2022-12-24T17:31:30.614Z,58.63
2022-12-24T17:33:57.598Z,59.03
2022-12-24T17:36:24.918Z,59.08
2022-12-24T17:38:51.896Z,59.10
2022-12-24T17:41:20.348Z,59.04
2022-12-24T17:43:47.640Z,58.70
2022-12-24T17:46:17.017Z,58.48
2022-12-24T17:48:44.125Z,58.78
2022-12-24T17:51:13.919Z,58.53
2022-12-24T17:53:42.088Z,58.44
2022-12-24T17:56:12.343Z,58.40
2022-12-24T17:58:40.520Z,58.44
2022-12-24T18:01:10.993Z,58.84
2022-12-24T18:03:37.775Z,58.60
2022-12-24T18:06:05.947Z,58.56
2022-12-24T18:08:32.721Z,58.56
2022-12-24T18:10:59.418Z,58.23
2022-12-24T18:13:26.804Z,58.63
2022-12-24T18:15:53.515Z,58.43
2022-12-24T18:18:20.538Z,58.46
2022-12-24T18:20:47.643Z,58.44
2022-12-24T18:23:14.503Z,58.50
2022-12-24T18:25:41.152Z,58.06
2022-12-24T18:28:07.920Z,58.39
2022-12-24T18:30:34.677Z,58.28
2022-12-24T18:33:01.556Z,57.98
2022-12-24T18:35:28.320Z,58.29
2022-12-24T18:37:55.198Z,57.94
2022-12-24T18:40:21.919Z,57.93
2022-12-24T18:42:48.681Z,58.14
2022-12-24T18:45:15.482Z,58.07
2022-12-24T18:47:42.261Z,57.93
2022-12-24T18:50:09.278Z,57.87
2022-12-24T18:52:36.231Z,57.68
2022-12-24T18:55:03.308Z,57.65
2022-12-24T18:57:30.791Z,57.89
2022-12-24T18:59:57.489Z,57.62
2022-12-24T19:02:24.416Z,57.58
2022-12-24T19:04:51.459Z,57.74
2022-12-24T19:07:18.331Z,57.35
2022-12-24T19:09:48.246Z,57.74
2022-12-24T19:12:15.813Z,57.71
2022-12-24T19:14:42.715Z,57.22
2022-12-24T19:17:09.558Z,57.20
2022-12-24T19:19:36.256Z,57.44
2022-12-24T19:22:03.831Z,57.46
2022-12-24T19:24:30.718Z,57.55
2022-12-24T19:26:57.572Z,56.99
2022-12-24T19:29:24.295Z,57.03
2022-12-24T19:31:51.197Z,57.33
2022-12-24T19:34:17.936Z,57.33
2022-12-24T19:36:44.999Z,56.91
2022-12-24T19:39:11.687Z,57.04
2022-12-24T19:41:38.692Z,56.89
2022-12-24T19:44:05.614Z,56.99
2022-12-24T19:46:34.450Z,56.76
2022-12-24T19:49:05.121Z,57.21
2022-12-24T19:51:32.377Z,56.77
2022-12-24T19:54:00.295Z,56.88
2022-12-24T19:56:29.617Z,56.66
2022-12-24T19:58:59.923Z,56.91
2022-12-24T20:01:29.194Z,56.60
2022-12-24T20:03:56.627Z,56.57
2022-12-24T20:06:26.545Z,56.94
2022-12-24T20:08:58.327Z,56.62
2022-12-24T20:11:25.229Z,56.54
2022-12-24T20:13:52.663Z,56.86
2022-12-24T20:16:21.245Z,56.60
2022-12-24T20:18:56.392Z,56.53
2022-12-24T20:21:23.508Z,56.39
2022-12-24T20:23:50.329Z,56.65
2022-12-24T20:26:19.013Z,56.29
2022-12-24T20:28:46.167Z,56.59
2022-12-24T20:31:15.623Z,56.66
2022-12-24T20:33:43.677Z,56.76
2022-12-24T20:36:10.940Z,56.24
2022-12-24T20:38:38.580Z,56.66
2022-12-24T20:41:05.784Z,56.48
2022-12-24T20:43:37.334Z,56.46
2022-12-24T20:46:06.054Z,56.11
2022-12-24T20:48:32.989Z,56.24
2022-12-24T20:50:59.931Z,56.28
2022-12-24T20:53:26.895Z,56.32
2022-12-24T20:55:54.005Z,56.59
2022-12-24T20:58:21.146Z,56.31
2022-12-24T21:00:49.449Z,56.69
2022-12-24T21:03:17.527Z,56.58
2022-12-24T21:05:45.088Z,56.50
2022-12-24T21:08:12.963Z,56.57
2022-12-24T21:10:40.475Z,56.21
2022-12-24T21:13:07.444Z,56.40
2022-12-24T21:15:37.151Z,56.04
2022-12-24T21:18:12.015Z,56.41
2022-12-24T21:20:40.422Z,56.35
2022-12-24T21:23:07.401Z,56.35
2022-12-24T21:25:34.369Z,56.01
2022-12-24T21:28:01.386Z,56.25
2022-12-24T21:30:28.384Z,56.33
2022-12-24T21:32:55.164Z,56.11
2022-12-24T21:35:21.922Z,56.00
2022-12-24T21:37:48.624Z,56.02
2022-12-24T21:40:15.369Z,56.07
2022-12-24T21:42:42.120Z,56.00
2022-12-24T21:45:09.666Z,55.92
2022-12-24T21:47:38.137Z,55.95
2022-12-24T21:50:29.988Z,55.85
2022-12-24T21:53:18.794Z,55.91
2022-12-24T21:55:45.698Z,55.91
2022-12-24T21:58:12.416Z,56.22
2022-12-24T22:00:39.179Z,56.28
2022-12-24T22:03:06.181Z,56.11
2022-12-24T22:05:34.248Z,55.82
2022-12-24T22:08:19.525Z,56.04
2022-12-24T22:11:05.218Z,55.80
2022-12-24T22:13:32.346Z,56.15
2022-12-24T22:15:59.112Z,56.13
2022-12-24T22:18:26.092Z,55.95
2022-12-24T22:20:52.854Z,55.92
2022-12-24T22:23:19.947Z,56.35
2022-12-24T22:25:47.348Z,56.12
2022-12-24T22:28:14.327Z,56.18
2022-12-24T22:30:42.472Z,55.81
2022-12-24T22:33:10.496Z,56.11
2022-12-24T22:35:39.080Z,55.83
2022-12-24T22:38:08.992Z,56.20
2022-12-24T22:40:36.165Z,56.05
2022-12-24T22:43:02.905Z,55.68
2022-12-24T22:45:29.640Z,55.77
2022-12-24T22:47:56.364Z,55.99
2022-12-24T22:50:23.218Z,56.12
2022-12-24T22:52:49.959Z,56.17
2022-12-24T22:55:16.882Z,55.69
2022-12-24T22:57:43.588Z,55.80
2022-12-24T23:00:15.644Z,56.11
2022-12-24T23:02:42.644Z,55.86
2022-12-24T23:05:14.322Z,55.99
2022-12-24T23:07:41.155Z,55.97
2022-12-24T23:10:08.354Z,55.74
2022-12-24T23:12:53.736Z,55.85
2022-12-24T23:15:20.608Z,55.60
2022-12-24T23:17:49.844Z,56.08
2022-12-24T23:20:16.712Z,55.80
2022-12-24T23:22:43.356Z,55.70
2022-12-24T23:25:10.591Z,55.94
2022-12-24T23:27:37.331Z,55.74
2022-12-24T23:30:04.534Z,55.92
2022-12-24T23:32:31.210Z,55.84
2022-12-24T23:34:57.982Z,55.79
2022-12-24T23:37:28.250Z,56.07
2022-12-24T23:39:59.858Z,55.63
2022-12-24T23:42:26.536Z,55.88
2022-12-24T23:44:53.291Z,55.66
2022-12-24T23:47:20.719Z,55.86
2022-12-24T23:49:47.492Z,56.16
2022-12-24T23:52:14.200Z,55.90
2022-12-24T23:54:40.985Z,55.75
2022-12-24T23:57:07.683Z,56.13
2022-12-24T23:59:34.915Z,55.81
